createdAt,value
2023-01-17T00:00:29.964Z,83.17
2023-01-17T00:03:02.429Z,82.92
2023-01-17T00:05:51.147Z,83.00
2023-01-17T00:08:40.017Z,82.63
2023-01-17T00:11:12.333Z,82.40
2023-01-17T00:13:43.664Z,82.25
2023-01-17T00:16:15.568Z,82.28
2023-01-17T00:19:07.940Z,82.26
2023-01-17T00:21:56.712Z,82.52
2023-01-17T00:24:45.855Z,82.92
2023-01-17T00:27:15.971Z,82.74
2023-01-17T00:29:46.104Z,82.84
2023-01-17T00:32:16.239Z,82.62
2023-01-17T00:34:46.757Z,82.44
2023-01-17T00:37:17.062Z,82.27
2023-01-17T00:39:47.626Z,82.46
2023-01-17T00:42:17.947Z,82.33
2023-01-17T00:45:06.730Z,82.28
2023-01-17T00:47:56.974Z,82.36
2023-01-17T00:50:49.199Z,81.66
2023-01-17T00:53:38.557Z,81.27
2023-01-17T00:56:28.235Z,81.57
2023-01-17T00:59:17.145Z,81.86
2023-01-17T01:02:06.090Z,81.96
2023-01-17T01:04:55.790Z,81.93
2023-01-17T01:07:44.438Z,81.91
2023-01-17T01:10:33.809Z,82.18
2023-01-17T01:13:22.829Z,82.12
2023-01-17T01:16:11.598Z,82.17
2023-01-17T01:19:00.343Z,82.47
2023-01-17T01:21:49.797Z,82.55
2023-01-17T01:24:39.223Z,82.36
2023-01-17T01:27:28.481Z,82.85
2023-01-17T01:30:17.627Z,83.24
2023-01-17T01:33:06.194Z,83.17
2023-01-17T01:35:39.822Z,82.79
2023-01-17T01:38:12.319Z,82.60
2023-01-17T01:40:52.963Z,82.42
2023-01-17T01:43:43.129Z,82.82
2023-01-17T01:46:18.541Z,82.90
2023-01-17T01:48:55.504Z,83.08
2023-01-17T01:51:31.552Z,83.06
2023-01-17T01:54:08.943Z,83.38
2023-01-17T01:56:42.559Z,83.51
2023-01-17T01:59:18.231Z,83.37
2023-01-17T02:01:51.759Z,83.27
2023-01-17T02:04:24.734Z,83.34
2023-01-17T02:07:02.291Z,82.93
2023-01-17T02:09:33.761Z,83.16
2023-01-17T02:12:06.522Z,83.22
2023-01-17T02:14:38.225Z,83.28
2023-01-17T02:17:21.373Z,83.15
2023-01-17T02:20:14.001Z,83.06
2023-01-17T02:23:22.053Z,83.27
2023-01-17T02:26:29.367Z,83.10
2023-01-17T02:29:26.323Z,82.71
2023-01-17T02:32:03.600Z,82.47
2023-01-17T02:34:42.786Z,82.68
2023-01-17T02:37:20.177Z,82.95
2023-01-17T02:39:57.762Z,83.10
2023-01-17T02:42:33.452Z,82.75
2023-01-17T02:45:05.980Z,82.83
2023-01-17T02:47:37.842Z,82.94
2023-01-17T02:50:14.245Z,82.91
2023-01-17T02:52:57.312Z,82.54
2023-01-17T02:55:42.358Z,82.83
2023-01-17T02:58:34.977Z,82.67
2023-01-17T03:01:19.219Z,81.97
2023-01-17T03:03:56.877Z,82.14
2023-01-17T03:06:32.701Z,82.23
2023-01-17T03:09:05.615Z,82.41
2023-01-17T03:11:38.181Z,82.09
2023-01-17T03:14:09.959Z,82.64
2023-01-17T03:16:41.786Z,82.85
2023-01-17T03:19:14.969Z,83.09
2023-01-17T03:21:46.810Z,83.29
2023-01-17T03:24:18.132Z,83.50
2023-01-17T03:26:49.839Z,83.60
2023-01-17T03:29:22.595Z,83.68
2023-01-17T03:31:54.152Z,83.66
2023-01-17T03:34:26.058Z,83.79
2023-01-17T03:36:57.720Z,83.52
2023-01-17T03:39:29.509Z,83.59
2023-01-17T03:42:01.192Z,83.59
2023-01-17T03:44:32.546Z,83.76
2023-01-17T03:47:04.388Z,83.59
2023-01-17T03:49:36.010Z,83.39
2023-01-17T03:52:08.151Z,83.56
2023-01-17T03:54:39.576Z,83.81
2023-01-17T03:57:10.989Z,83.70
2023-01-17T03:59:42.898Z,83.35
2023-01-17T04:02:14.551Z,83.59
2023-01-17T04:04:46.490Z,83.64
2023-01-17T04:07:18.136Z,83.80
2023-01-17T04:09:50.194Z,83.97
2023-01-17T04:12:21.845Z,83.99
2023-01-17T04:14:53.632Z,84.13
2023-01-17T04:17:26.462Z,83.97
2023-01-17T04:19:58.717Z,83.81
2023-01-17T04:22:31.812Z,83.70
2023-01-17T04:25:03.544Z,83.73
2023-01-17T04:27:34.913Z,83.11
2023-01-17T04:30:07.299Z,83.17
2023-01-17T04:32:48.825Z,83.57
2023-01-17T04:35:33.409Z,83.56
2023-01-17T04:38:05.764Z,83.40
2023-01-17T04:40:37.454Z,83.06
2023-01-17T04:43:08.836Z,82.78
2023-01-17T04:45:40.221Z,82.89
2023-01-17T04:48:13.096Z,83.23
2023-01-17T04:50:44.737Z,83.29
2023-01-17T04:53:16.089Z,83.40
2023-01-17T04:55:49.834Z,83.56
2023-01-17T04:58:21.403Z,83.89
2023-01-17T05:00:53.031Z,84.06
2023-01-17T05:03:25.957Z,84.12
2023-01-17T05:05:57.621Z,83.63
2023-01-17T05:08:29.019Z,83.26
2023-01-17T05:11:00.724Z,83.33
2023-01-17T05:13:32.366Z,83.44
2023-01-17T05:16:04.790Z,83.18
2023-01-17T05:18:36.182Z,83.29
2023-01-17T05:21:08.164Z,83.40
2023-01-17T05:23:40.822Z,83.38
2023-01-17T05:26:12.420Z,83.23
2023-01-17T05:28:43.819Z,83.09
2023-01-17T05:31:15.117Z,82.84
2023-01-17T05:33:46.540Z,82.57
2023-01-17T05:36:19.222Z,82.71
2023-01-17T05:38:52.515Z,83.17
2023-01-17T05:41:24.275Z,83.11
2023-01-17T05:43:55.876Z,83.20
2023-01-17T05:46:27.398Z,83.22
2023-01-17T05:48:59.350Z,83.16
2023-01-17T05:51:31.325Z,83.21
2023-01-17T05:54:02.847Z,83.44
2023-01-17T05:56:34.924Z,83.21
2023-01-17T05:59:06.440Z,82.96
2023-01-17T06:01:38.316Z,82.77
2023-01-17T06:04:10.187Z,82.64
2023-01-17T06:06:41.964Z,82.88
2023-01-17T06:09:14.186Z,83.12
2023-01-17T06:11:45.611Z,82.69
2023-01-17T06:14:17.191Z,82.70
2023-01-17T06:16:49.179Z,82.78
2023-01-17T06:19:20.765Z,82.67
2023-01-17T06:21:52.899Z,82.45
2023-01-17T06:24:24.212Z,82.22
2023-01-17T06:26:55.806Z,82.41
2023-01-17T06:29:27.639Z,82.29
2023-01-17T06:32:01.509Z,82.04
2023-01-17T06:34:33.375Z,82.26
2023-01-17T06:37:05.446Z,82.22
2023-01-17T06:39:36.957Z,82.45
2023-01-17T06:42:08.836Z,82.67
2023-01-17T06:44:40.398Z,82.63
2023-01-17T06:47:12.110Z,82.63
2023-01-17T06:49:44.064Z,82.84
2023-01-17T06:52:15.507Z,82.68
2023-01-17T06:54:47.009Z,82.40
2023-01-17T06:57:18.571Z,82.78
2023-01-17T06:59:50.002Z,82.82
2023-01-17T07:02:21.603Z,82.69
2023-01-17T07:04:53.338Z,82.53
2023-01-17T07:07:25.126Z,82.18
2023-01-17T07:09:56.824Z,81.94
2023-01-17T07:12:28.255Z,81.45
2023-01-17T07:14:59.637Z,81.30
2023-01-17T07:17:32.167Z,81.35
2023-01-17T07:20:04.835Z,80.81
2023-01-17T07:22:37.970Z,79.88
2023-01-17T07:25:11.938Z,79.41
2023-01-17T07:27:43.703Z,79.24
2023-01-17T07:30:16.448Z,79.39
2023-01-17T07:32:51.755Z,79.53
2023-01-17T07:35:26.963Z,79.91
2023-01-17T07:37:58.386Z,80.52
2023-01-17T07:40:29.931Z,80.68
2023-01-17T07:43:12.588Z,80.99
2023-01-17T07:45:46.489Z,80.85
2023-01-17T07:48:18.495Z,80.89
2023-01-17T07:50:55.187Z,80.57
2023-01-17T07:53:29.277Z,80.32
2023-01-17T07:56:04.570Z,80.41
2023-01-17T07:58:36.749Z,80.41
2023-01-17T08:01:11.171Z,80.51
2023-01-17T08:03:43.664Z,80.69
2023-01-17T08:06:22.380Z,80.74
2023-01-17T08:08:55.353Z,80.78
2023-01-17T08:11:27.212Z,81.04
2023-01-17T08:13:59.782Z,80.74
2023-01-17T08:16:31.732Z,80.65
2023-01-17T08:19:03.518Z,80.29
2023-01-17T08:21:35.610Z,79.90
2023-01-17T08:24:07.768Z,80.16
2023-01-17T08:26:39.990Z,79.88
2023-01-17T08:29:12.646Z,79.99
2023-01-17T08:31:44.333Z,80.38
2023-01-17T08:34:15.783Z,80.01
2023-01-17T08:36:48.246Z,79.54
2023-01-17T08:39:20.320Z,79.67
2023-01-17T08:41:52.390Z,79.46
2023-01-17T08:44:24.153Z,79.17
2023-01-17T08:46:56.094Z,78.91
2023-01-17T08:49:28.442Z,79.04
2023-01-17T08:52:00.035Z,79.31
2023-01-17T08:54:32.022Z,79.46
2023-01-17T08:57:05.334Z,79.82
2023-01-17T08:59:36.878Z,79.67
2023-01-17T09:02:15.241Z,79.63
2023-01-17T09:04:49.479Z,79.41
2023-01-17T09:07:22.431Z,79.11
2023-01-17T09:09:54.003Z,79.05
2023-01-17T09:12:25.457Z,78.97
2023-01-17T09:14:56.901Z,79.22
2023-01-17T09:17:28.830Z,79.04
2023-01-17T09:20:01.581Z,78.54
2023-01-17T09:22:33.964Z,78.23
2023-01-17T09:25:05.925Z,77.82
2023-01-17T09:27:37.552Z,78.00
2023-01-17T09:30:12.301Z,78.25
2023-01-17T09:32:41.983Z,78.46
2023-01-17T09:35:13.831Z,78.31
2023-01-17T09:37:45.520Z,78.16
2023-01-17T09:40:19.840Z,78.25
2023-01-17T09:42:54.867Z,77.78
2023-01-17T09:45:30.043Z,77.43
2023-01-17T09:48:08.168Z,77.77
2023-01-17T09:50:45.475Z,77.67
2023-01-17T09:53:21.138Z,77.43
2023-01-17T09:55:59.047Z,77.88
2023-01-17T09:58:43.866Z,77.49
2023-01-17T10:01:22.857Z,77.06
2023-01-17T10:04:19.759Z,77.27
2023-01-17T10:07:07.126Z,77.13
2023-01-17T10:09:56.520Z,76.70
2023-01-17T10:12:34.764Z,76.43
2023-01-17T10:15:39.346Z,76.16
2023-01-17T10:18:30.406Z,76.59
2023-01-17T10:21:11.517Z,76.35
2023-01-17T10:24:16.623Z,76.12
2023-01-17T10:26:51.442Z,76.28
2023-01-17T10:29:22.199Z,76.52
2023-01-17T10:31:57.039Z,76.92
2023-01-17T10:34:29.581Z,77.15
2023-01-17T10:37:07.665Z,77.14
2023-01-17T10:39:39.497Z,76.96
2023-01-17T10:42:21.673Z,76.80
2023-01-17T10:45:00.852Z,76.77
2023-01-17T10:47:36.668Z,76.69
2023-01-17T10:50:13.395Z,76.87
2023-01-17T10:52:53.584Z,77.00
2023-01-17T10:55:40.841Z,76.99
2023-01-17T10:58:14.356Z,77.02
2023-01-17T11:00:51.647Z,76.79
2023-01-17T11:03:24.669Z,76.55
2023-01-17T11:06:20.064Z,76.42
2023-01-17T11:08:56.612Z,76.57
2023-01-17T11:11:32.139Z,76.22
2023-01-17T11:14:06.594Z,76.23
2023-01-17T11:16:38.511Z,76.00
2023-01-17T11:19:16.652Z,76.08
2023-01-17T11:21:58.099Z,76.29
2023-01-17T11:24:36.270Z,76.34
2023-01-17T11:27:24.169Z,75.99
2023-01-17T11:30:06.888Z,75.93
2023-01-17T11:32:39.559Z,76.12
2023-01-17T11:35:22.025Z,75.96
2023-01-17T11:38:06.221Z,76.32
2023-01-17T11:40:41.917Z,75.85
2023-01-17T11:43:25.764Z,75.58
2023-01-17T11:46:19.485Z,75.75
2023-01-17T11:48:57.255Z,75.66
2023-01-17T11:51:34.528Z,75.17
2023-01-17T11:54:18.609Z,75.24
2023-01-17T11:56:50.785Z,75.53
2023-01-17T11:59:31.705Z,75.27
2023-01-17T12:02:22.708Z,75.58
2023-01-17T12:05:02.843Z,75.48
2023-01-17T12:07:46.187Z,75.26
2023-01-17T12:10:24.854Z,75.53
2023-01-17T12:13:22.423Z,75.56
2023-01-17T12:16:17.057Z,75.25
2023-01-17T12:19:00.126Z,74.68
2023-01-17T12:21:40.828Z,73.80
2023-01-17T12:24:37.477Z,73.82
2023-01-17T12:27:16.785Z,73.73
2023-01-17T12:30:00.248Z,73.60
2023-01-17T12:33:04.174Z,73.87
2023-01-17T12:35:40.095Z,74.08
2023-01-17T12:38:27.337Z,73.62
2023-01-17T12:41:05.692Z,73.65
2023-01-17T12:43:40.963Z,73.24
2023-01-17T12:46:21.205Z,72.79
2023-01-17T12:48:57.699Z,72.89
2023-01-17T12:51:34.097Z,73.37
2023-01-17T12:54:14.088Z,73.34
2023-01-17T12:56:50.440Z,73.34
2023-01-17T12:59:30.479Z,73.26
2023-01-17T13:02:12.465Z,73.12
2023-01-17T13:04:58.349Z,72.81
2023-01-17T13:07:39.722Z,72.39
2023-01-17T13:10:23.846Z,72.64
2023-01-17T13:13:00.664Z,72.02
2023-01-17T13:15:39.216Z,72.00
2023-01-17T13:18:16.034Z,71.94
2023-01-17T13:21:09.536Z,71.94
2023-01-17T13:23:56.095Z,71.66
2023-01-17T13:26:39.585Z,71.28
2023-01-17T13:29:25.134Z,71.73
2023-01-17T13:32:06.739Z,71.64
2023-01-17T13:35:09.441Z,71.73
2023-01-17T13:38:01.261Z,71.69
2023-01-17T13:40:43.880Z,71.98
2023-01-17T13:43:25.916Z,71.81
2023-01-17T13:46:05.942Z,71.51
2023-01-17T13:48:46.525Z,71.67
2023-01-17T13:51:20.131Z,71.84
2023-01-17T13:53:57.302Z,71.97
2023-01-17T13:56:36.857Z,71.98
2023-01-17T13:59:34.676Z,71.97
2023-01-17T14:02:28.057Z,72.01
2023-01-17T14:05:15.647Z,71.83
2023-01-17T14:07:56.226Z,71.81
2023-01-17T14:10:39.013Z,71.96
2023-01-17T14:13:36.975Z,71.78
2023-01-17T14:16:28.721Z,71.92
2023-01-17T14:19:04.522Z,71.95
2023-01-17T14:21:36.674Z,71.92
2023-01-17T14:24:20.072Z,72.20
2023-01-17T14:26:57.204Z,72.36
2023-01-17T14:29:56.145Z,72.16
2023-01-17T14:32:34.459Z,72.02
2023-01-17T14:35:09.472Z,72.03
2023-01-17T14:37:48.368Z,72.13
2023-01-17T14:40:27.688Z,72.15
2023-01-17T14:43:04.551Z,72.50
2023-01-17T14:45:42.325Z,72.22
2023-01-17T14:48:20.339Z,72.28
2023-01-17T14:50:54.845Z,72.31
2023-01-17T14:53:28.409Z,72.23
2023-01-17T14:56:21.082Z,72.19
2023-01-17T14:59:08.398Z,72.51
2023-01-17T15:01:41.280Z,72.54
2023-01-17T15:04:26.546Z,72.59
2023-01-17T15:07:00.315Z,72.38
2023-01-17T15:09:34.422Z,72.27
2023-01-17T15:12:09.983Z,72.30
2023-01-17T15:14:44.853Z,72.18
2023-01-17T15:17:22.142Z,72.40
2023-01-17T15:19:58.473Z,72.02
2023-01-17T15:22:31.284Z,71.84
2023-01-17T15:25:04.322Z,71.71
2023-01-17T15:27:36.330Z,72.00
2023-01-17T15:30:18.530Z,72.15
2023-01-17T15:32:53.282Z,72.47
2023-01-17T15:35:23.046Z,72.56
2023-01-17T15:37:58.643Z,72.74
2023-01-17T15:40:33.505Z,73.01
2023-01-17T15:43:06.982Z,73.20
2023-01-17T15:45:41.902Z,73.47
2023-01-17T15:48:39.093Z,73.35
2023-01-17T15:51:16.019Z,73.45
2023-01-17T15:53:49.701Z,73.05
2023-01-17T15:56:31.479Z,73.22
2023-01-17T15:59:35.273Z,73.30
2023-01-17T16:02:24.728Z,73.49
2023-01-17T16:04:56.698Z,73.52
2023-01-17T16:07:35.520Z,73.57
2023-01-17T16:10:16.725Z,73.70
2023-01-17T16:12:50.032Z,73.41
2023-01-17T16:15:23.961Z,73.42
2023-01-17T16:17:58.693Z,73.43
2023-01-17T16:20:34.758Z,73.34
2023-01-17T16:23:07.042Z,73.21
2023-01-17T16:25:40.536Z,73.35
2023-01-17T16:28:12.490Z,73.46
2023-01-17T16:30:45.337Z,73.82
2023-01-17T16:33:17.966Z,73.93
2023-01-17T16:35:51.598Z,73.88
2023-01-17T16:38:26.305Z,73.66
2023-01-17T16:40:58.993Z,73.83
2023-01-17T16:43:31.398Z,73.64
2023-01-17T16:46:03.653Z,73.51
2023-01-17T16:48:44.637Z,73.60
2023-01-17T16:51:21.270Z,73.79
2023-01-17T16:53:52.654Z,73.92
2023-01-17T16:56:24.212Z,73.99
2023-01-17T16:58:56.485Z,74.27
2023-01-17T17:01:28.087Z,74.37
2023-01-17T17:03:59.892Z,74.56
2023-01-17T17:06:33.239Z,74.73
2023-01-17T17:09:05.315Z,74.52
2023-01-17T17:11:36.874Z,74.61
2023-01-17T17:14:09.654Z,74.65
2023-01-17T17:16:41.757Z,74.89
2023-01-17T17:19:16.811Z,74.82
2023-01-17T17:21:49.723Z,75.27
2023-01-17T17:24:21.195Z,75.36
2023-01-17T17:26:52.949Z,75.34
2023-01-17T17:29:25.581Z,75.46
2023-01-17T17:31:57.677Z,75.53
2023-01-17T17:34:31.182Z,75.56
2023-01-17T17:37:03.879Z,75.63
2023-01-17T17:39:35.930Z,75.57
2023-01-17T17:42:08.183Z,75.71
2023-01-17T17:44:40.415Z,75.55
2023-01-17T17:47:13.236Z,75.33
2023-01-17T17:49:46.411Z,75.55
2023-01-17T17:52:17.866Z,75.43
2023-01-17T17:54:51.121Z,75.55
2023-01-17T17:57:23.373Z,75.85
2023-01-17T17:59:57.275Z,75.55
2023-01-17T18:02:29.618Z,75.51
2023-01-17T18:05:03.058Z,75.13
2023-01-17T18:07:37.651Z,75.36
2023-01-17T18:10:12.506Z,75.69
2023-01-17T18:12:46.544Z,76.06
2023-01-17T18:15:21.130Z,76.13
2023-01-17T18:17:56.853Z,76.06
2023-01-17T18:20:30.955Z,76.00
2023-01-17T18:23:02.979Z,76.07
2023-01-17T18:25:44.307Z,75.95
2023-01-17T18:28:17.660Z,76.34
2023-01-17T18:30:51.108Z,76.52
2023-01-17T18:33:23.997Z,76.26
2023-01-17T18:36:02.138Z,75.99
2023-01-17T18:38:40.368Z,76.12
2023-01-17T18:41:17.045Z,76.20
2023-01-17T18:43:50.835Z,76.09
2023-01-17T18:46:26.162Z,76.47
2023-01-17T18:49:01.963Z,76.80
2023-01-17T18:51:41.108Z,77.06
2023-01-17T18:54:20.825Z,76.97
2023-01-17T18:56:57.765Z,77.11
2023-01-17T18:59:36.864Z,77.00
2023-01-17T19:02:12.599Z,76.39
2023-01-17T19:04:49.010Z,76.41
2023-01-17T19:07:23.193Z,76.44
2023-01-17T19:09:57.696Z,76.45
2023-01-17T19:12:31.461Z,76.39
2023-01-17T19:15:07.641Z,76.62
2023-01-17T19:17:40.957Z,76.65
2023-01-17T19:20:18.658Z,76.51
2023-01-17T19:22:55.939Z,76.70
2023-01-17T19:25:32.457Z,76.59
2023-01-17T19:28:07.667Z,76.42
2023-01-17T19:30:43.054Z,76.18
2023-01-17T19:33:17.309Z,76.13
2023-01-17T19:35:55.723Z,76.16
2023-01-17T19:38:29.274Z,76.23
2023-01-17T19:41:14.838Z,76.46
2023-01-17T19:43:48.921Z,76.35
2023-01-17T19:46:24.235Z,76.13
2023-01-17T19:48:57.823Z,76.15
2023-01-17T19:51:32.180Z,76.40
2023-01-17T19:54:16.078Z,76.18
2023-01-17T19:56:57.076Z,76.39
2023-01-17T19:59:30.355Z,75.68
2023-01-17T20:02:12.289Z,75.91
2023-01-17T20:04:47.506Z,75.81
2023-01-17T20:07:23.442Z,75.81
2023-01-17T20:09:58.401Z,76.08
2023-01-17T20:12:36.149Z,76.12
2023-01-17T20:15:11.156Z,76.38
2023-01-17T20:17:41.587Z,76.25
2023-01-17T20:20:16.696Z,76.33
2023-01-17T20:22:50.784Z,76.90
2023-01-17T20:25:23.548Z,76.95
2023-01-17T20:28:00.665Z,77.08
2023-01-17T20:30:35.025Z,77.23
2023-01-17T20:33:15.598Z,76.65
2023-01-17T20:35:49.030Z,76.72
2023-01-17T20:38:27.908Z,76.78
2023-01-17T20:41:13.513Z,76.70
2023-01-17T20:43:47.849Z,76.10
2023-01-17T20:46:23.455Z,76.27
2023-01-17T20:48:57.143Z,76.56
2023-01-17T20:51:31.275Z,76.22
2023-01-17T20:54:04.622Z,76.22
2023-01-17T20:56:38.091Z,76.71
2023-01-17T20:59:13.906Z,76.81
2023-01-17T21:01:46.449Z,76.75
2023-01-17T21:04:26.045Z,76.85
2023-01-17T21:06:58.918Z,76.78
2023-01-17T21:09:31.024Z,76.79
2023-01-17T21:12:02.617Z,76.89
2023-01-17T21:14:35.163Z,76.29
2023-01-17T21:17:09.927Z,76.04
2023-01-17T21:19:40.439Z,76.43
2023-01-17T21:22:17.094Z,76.23
2023-01-17T21:24:49.940Z,76.49
2023-01-17T21:27:22.251Z,76.58
2023-01-17T21:29:56.410Z,76.50
2023-01-17T21:32:30.762Z,76.72
2023-01-17T21:35:02.528Z,77.06
2023-01-17T21:37:34.541Z,76.94
2023-01-17T21:40:07.369Z,77.29
2023-01-17T21:42:39.448Z,76.98
2023-01-17T21:45:13.477Z,76.68
2023-01-17T21:47:48.266Z,77.20
2023-01-17T21:50:32.489Z,77.46
2023-01-17T21:53:08.790Z,76.86
2023-01-17T21:55:57.634Z,76.67
2023-01-17T21:58:45.099Z,77.11
2023-01-17T22:01:21.823Z,77.36
2023-01-17T22:03:54.984Z,77.44
2023-01-17T22:06:29.719Z,76.88
2023-01-17T22:08:59.664Z,76.78
2023-01-17T22:11:31.657Z,76.95
2023-01-17T22:14:05.377Z,76.85
2023-01-17T22:16:37.051Z,76.62
2023-01-17T22:19:08.466Z,76.53
2023-01-17T22:21:40.099Z,76.83
2023-01-17T22:24:13.939Z,76.94
2023-01-17T22:26:45.377Z,76.84
2023-01-17T22:29:19.131Z,76.98
2023-01-17T22:31:50.855Z,76.74
2023-01-17T22:34:23.057Z,76.75
2023-01-17T22:36:54.494Z,76.88
2023-01-17T22:39:26.514Z,77.01
2023-01-17T22:41:58.217Z,76.41
2023-01-17T22:44:30.006Z,76.62
2023-01-17T22:47:01.581Z,77.08
2023-01-17T22:49:33.282Z,77.11
2023-01-17T22:52:04.727Z,76.89
2023-01-17T22:54:36.084Z,76.55
2023-01-17T22:57:07.794Z,76.44
2023-01-17T22:59:39.377Z,76.47
2023-01-17T23:02:12.419Z,76.33
2023-01-17T23:04:44.001Z,75.87
2023-01-17T23:07:15.541Z,75.97
2023-01-17T23:09:47.696Z,76.51
2023-01-17T23:12:19.120Z,76.49
2023-01-17T23:15:07.794Z,76.64
2023-01-17T23:17:56.662Z,76.89
2023-01-17T23:20:28.385Z,76.81
2023-01-17T23:23:00.217Z,76.99
2023-01-17T23:25:32.142Z,76.84
2023-01-17T23:28:21.208Z,76.46
2023-01-17T23:30:52.654Z,76.25
2023-01-17T23:33:24.382Z,76.12
2023-01-17T23:35:56.806Z,76.52
2023-01-17T23:38:29.855Z,76.63
2023-01-17T23:41:23.863Z,76.16
2023-01-17T23:43:56.868Z,76.48
2023-01-17T23:46:30.419Z,76.44
2023-01-17T23:49:02.494Z,76.55
2023-01-17T23:51:34.525Z,76.58
2023-01-17T23:54:06.688Z,77.04
2023-01-17T23:56:38.398Z,77.24
2023-01-17T23:59:09.811Z,77.47
